createdAt,value
2022-09-12T00:01:21.565Z,14.80
2022-09-12T00:03:53.611Z,14.80
2022-09-12T00:06:23.501Z,14.80
2022-09-12T00:08:51.903Z,14.80
2022-09-12T00:11:20.419Z,14.90
2022-09-12T00:13:48.891Z,14.90
2022-09-12T00:16:18.765Z,14.90
2022-09-12T00:18:48.096Z,14.90
2022-09-12T00:21:19.266Z,14.80
2022-09-12T00:23:47.859Z,14.80
2022-09-12T00:26:17.377Z,14.80
2022-09-12T00:28:46.070Z,14.80
2022-09-12T00:31:16.161Z,14.80
2022-09-12T00:33:44.766Z,14.80
2022-09-12T00:36:15.533Z,14.80
2022-09-12T00:38:46.633Z,14.80
2022-09-12T00:41:18.114Z,14.80
2022-09-12T00:43:48.233Z,14.70
2022-09-12T00:46:27.705Z,14.70
2022-09-12T00:49:01.176Z,14.70
2022-09-12T00:51:33.268Z,14.70
2022-09-12T00:54:09.297Z,14.70
2022-09-12T00:56:40.515Z,14.70
2022-09-12T00:59:13.841Z,14.60
2022-09-12T01:01:43.771Z,14.70
2022-09-12T01:04:13.552Z,14.60
2022-09-12T01:06:44.389Z,14.70
2022-09-12T01:09:18.573Z,14.60
2022-09-12T01:11:48.738Z,14.60
2022-09-12T01:14:18.429Z,14.60
2022-09-12T01:16:48.422Z,14.60
2022-09-12T01:19:38.227Z,14.60
2022-09-12T01:22:21.368Z,14.50
2022-09-12T01:25:09.449Z,14.60
2022-09-12T01:27:48.324Z,14.50
2022-09-12T01:30:46.772Z,14.50
2022-09-12T01:33:36.818Z,14.50
2022-09-12T01:36:28.461Z,14.50
2022-09-12T01:39:02.536Z,14.50
2022-09-12T01:41:41.578Z,14.50
2022-09-12T01:44:16.223Z,14.50
2022-09-12T01:46:52.911Z,14.50
2022-09-12T01:49:24.809Z,14.50
2022-09-12T01:51:58.762Z,14.60
2022-09-12T01:54:33.767Z,14.60
2022-09-12T01:57:09.001Z,14.60
2022-09-12T01:59:42.405Z,14.70
2022-09-12T02:02:16.344Z,14.60
2022-09-12T02:04:51.674Z,14.70
2022-09-12T02:07:22.587Z,14.70
2022-09-12T02:09:55.800Z,14.70
2022-09-12T02:12:29.201Z,14.70
2022-09-12T02:15:00.672Z,14.70
2022-09-12T02:17:33.748Z,14.70
2022-09-12T02:20:06.644Z,14.70
2022-09-12T02:22:38.695Z,14.70
2022-09-12T02:25:10.570Z,14.70
2022-09-12T02:27:42.359Z,14.60
2022-09-12T02:30:13.148Z,14.60
2022-09-12T02:32:47.718Z,14.60
2022-09-12T02:35:21.989Z,14.60
2022-09-12T02:37:59.673Z,14.60
2022-09-12T02:40:28.411Z,14.50
2022-09-12T02:42:57.013Z,14.50
2022-09-12T02:45:25.293Z,14.50
2022-09-12T02:47:59.799Z,14.50
2022-09-12T02:50:28.798Z,14.50
2022-09-12T02:52:59.952Z,14.40
2022-09-12T02:55:30.612Z,14.40
2022-09-12T02:57:58.870Z,14.40
2022-09-12T03:00:28.052Z,14.30
2022-09-12T03:03:18.109Z,14.30
2022-09-12T03:05:54.599Z,14.30
2022-09-12T03:08:42.188Z,14.20
2022-09-12T03:11:49.028Z,14.20
2022-09-12T03:14:31.227Z,14.20
2022-09-12T03:17:09.480Z,14.10
2022-09-12T03:19:48.662Z,14.10
2022-09-12T03:22:23.513Z,14.10
2022-09-12T03:24:58.841Z,14.10
2022-09-12T03:27:32.202Z,14.00
2022-09-12T03:30:01.765Z,14.00
2022-09-12T03:32:43.429Z,14.00
2022-09-12T03:35:14.610Z,14.00
2022-09-12T03:37:42.950Z,14.00
2022-09-12T03:40:13.046Z,14.00
2022-09-12T03:42:41.497Z,14.00
2022-09-12T03:45:11.365Z,14.00
2022-09-12T03:47:39.787Z,13.90
2022-09-12T03:50:08.834Z,13.90
2022-09-12T03:52:38.488Z,13.90
2022-09-12T03:55:07.966Z,13.90
2022-09-12T03:57:36.181Z,13.90
2022-09-12T04:00:07.261Z,13.90
2022-09-12T04:02:35.744Z,13.80
2022-09-12T04:05:04.268Z,13.80
2022-09-12T04:07:32.474Z,13.80
2022-09-12T04:10:02.271Z,13.80
2022-09-12T04:12:31.014Z,13.80
2022-09-12T04:14:59.188Z,13.80
2022-09-12T04:17:27.340Z,13.80
2022-09-12T04:19:55.554Z,13.80
2022-09-12T04:22:23.937Z,13.80
2022-09-12T04:24:52.803Z,13.80
2022-09-12T04:27:22.560Z,13.80
2022-09-12T04:29:50.811Z,13.80
2022-09-12T04:32:19.009Z,13.80
2022-09-12T04:34:47.290Z,13.90
2022-09-12T04:37:16.978Z,13.90
2022-09-12T04:39:45.303Z,13.90
2022-09-12T04:42:13.632Z,14.00
2022-09-12T04:44:43.301Z,14.10
2022-09-12T04:47:11.530Z,14.10
2022-09-12T04:49:39.582Z,14.10
2022-09-12T04:52:08.196Z,14.20
2022-09-12T04:54:36.413Z,14.20
2022-09-12T04:57:04.853Z,14.30
2022-09-12T04:59:33.216Z,14.30
2022-09-12T05:02:03.197Z,14.30
2022-09-12T05:04:31.753Z,14.40
2022-09-12T05:07:00.033Z,14.40
2022-09-12T05:09:29.227Z,14.40
2022-09-12T05:12:04.166Z,14.40
2022-09-12T05:14:33.917Z,14.40
2022-09-12T05:17:04.760Z,14.40
2022-09-12T05:19:33.522Z,14.50
2022-09-12T05:22:01.753Z,14.60
2022-09-12T05:24:30.256Z,14.60
2022-09-12T05:26:58.479Z,14.60
2022-09-12T05:29:27.127Z,14.60
2022-09-12T05:31:55.203Z,14.70
2022-09-12T05:34:25.131Z,14.70
2022-09-12T05:36:53.362Z,14.70
2022-09-12T05:39:21.833Z,14.70
2022-09-12T05:41:50.052Z,14.70
2022-09-12T05:44:18.253Z,14.70
2022-09-12T05:46:50.468Z,14.70
2022-09-12T05:49:19.010Z,14.80
2022-09-12T05:51:48.567Z,14.80
2022-09-12T05:54:19.497Z,14.80
2022-09-12T05:56:49.265Z,14.90
2022-09-12T05:59:21.900Z,14.90
2022-09-12T06:01:50.324Z,14.90
2022-09-12T06:04:18.589Z,15.00
2022-09-12T06:06:48.936Z,15.00
2022-09-12T06:09:18.403Z,15.10
2022-09-12T06:11:47.643Z,15.10
2022-09-12T06:14:17.605Z,15.20
2022-09-12T06:16:46.310Z,15.20
2022-09-12T06:19:17.125Z,15.20
2022-09-12T06:21:45.845Z,15.20
2022-09-12T06:24:15.617Z,15.20
2022-09-12T06:26:43.919Z,15.30
2022-09-12T06:29:13.447Z,15.30
2022-09-12T06:31:42.966Z,15.40
2022-09-12T06:34:13.328Z,15.40
2022-09-12T06:36:43.561Z,15.50
2022-09-12T06:39:16.336Z,15.60
2022-09-12T06:41:45.499Z,15.60
2022-09-12T06:44:16.160Z,15.70
2022-09-12T06:46:44.690Z,15.90
2022-09-12T06:49:13.418Z,16.00
2022-09-12T06:51:43.406Z,16.00
2022-09-12T06:54:15.594Z,16.10
2022-09-12T06:56:44.169Z,16.20
2022-09-12T06:59:12.525Z,16.30
2022-09-12T07:01:42.663Z,16.40
2022-09-12T07:04:11.583Z,16.40
2022-09-12T07:06:41.235Z,16.50
2022-09-12T07:09:12.476Z,16.50
2022-09-12T07:11:43.950Z,16.60
2022-09-12T07:14:15.354Z,16.70
2022-09-12T07:16:44.132Z,16.80
2022-09-12T07:19:12.457Z,16.80
2022-09-12T07:21:41.737Z,16.90
2022-09-12T07:24:11.152Z,16.90
2022-09-12T07:26:42.689Z,16.90
2022-09-12T07:29:35.871Z,17.00
2022-09-12T07:32:05.842Z,17.10
2022-09-12T07:34:34.226Z,17.10
2022-09-12T07:37:02.568Z,17.20
2022-09-12T07:39:30.813Z,17.20
2022-09-12T07:42:00.681Z,17.40
2022-09-12T07:44:29.484Z,17.40
2022-09-12T07:46:57.721Z,17.60
2022-09-12T07:49:25.995Z,17.60
2022-09-12T07:51:54.227Z,17.60
2022-09-12T07:54:22.666Z,17.60
2022-09-12T07:56:50.994Z,17.60
2022-09-12T07:59:41.543Z,17.60
2022-09-12T08:02:16.816Z,17.50
2022-09-12T08:04:46.196Z,17.60
2022-09-12T08:07:14.304Z,17.60
2022-09-12T08:09:42.589Z,17.70
2022-09-12T08:12:10.805Z,17.80
2022-09-12T08:14:40.677Z,17.80
2022-09-12T08:17:08.880Z,17.80
2022-09-12T08:19:37.199Z,17.80
2022-09-12T08:22:05.558Z,18.00
2022-09-12T08:24:33.711Z,18.20
2022-09-12T08:27:01.909Z,18.30
2022-09-12T08:29:30.113Z,18.50
2022-09-12T08:31:59.838Z,18.60
2022-09-12T08:34:28.118Z,19.00
2022-09-12T08:36:56.397Z,19.50
2022-09-12T08:39:25.600Z,20.00
2022-09-12T08:42:01.880Z,20.40
2022-09-12T08:44:54.677Z,20.50
2022-09-12T08:47:29.137Z,20.80
2022-09-12T08:50:15.357Z,21.20
2022-09-12T08:52:53.187Z,21.30
2022-09-12T08:55:32.468Z,20.90
2022-09-12T08:58:01.548Z,20.60
2022-09-12T09:00:43.438Z,20.50
2022-09-12T09:03:47.782Z,20.70
2022-09-12T09:06:26.862Z,21.10
2022-09-12T09:09:06.750Z,21.20
2022-09-12T09:11:57.675Z,21.10
2022-09-12T09:14:51.514Z,21.20
2022-09-12T09:17:25.508Z,21.80
2022-09-12T09:20:04.604Z,22.50
2022-09-12T09:22:49.200Z,23.50
2022-09-12T09:25:23.217Z,24.10
2022-09-12T09:28:07.492Z,24.30
2022-09-12T09:30:37.462Z,23.90
2022-09-12T09:33:12.637Z,23.00
2022-09-12T09:35:46.332Z,22.70
2022-09-12T09:38:26.042Z,23.00
2022-09-12T09:41:18.817Z,23.20
2022-09-12T09:43:47.230Z,23.00
2022-09-12T09:46:16.316Z,22.70
2022-09-12T09:48:47.725Z,22.60
2022-09-12T09:51:21.420Z,22.40
2022-09-12T09:53:53.237Z,21.90
2022-09-12T09:56:29.964Z,21.80
2022-09-12T09:58:58.410Z,21.50
2022-09-12T10:01:28.281Z,21.40
2022-09-12T10:03:57.521Z,21.30
2022-09-12T10:06:34.491Z,21.20
2022-09-12T10:09:22.387Z,21.30
2022-09-12T10:11:51.740Z,21.50
2022-09-12T10:14:32.226Z,21.50
2022-09-12T10:17:00.716Z,21.70
2022-09-12T10:19:36.750Z,21.90
2022-09-12T10:22:08.138Z,22.20
2022-09-12T10:24:41.383Z,22.10
2022-09-12T10:27:16.289Z,22.20
2022-09-12T10:29:48.600Z,22.10
2022-09-12T10:32:30.881Z,22.50
2022-09-12T10:35:03.027Z,23.30
2022-09-12T10:37:36.158Z,24.10
2022-09-12T10:40:06.979Z,24.80
2022-09-12T10:42:50.636Z,25.20
2022-09-12T10:45:30.999Z,25.30
2022-09-12T10:48:05.419Z,25.30
2022-09-12T10:50:40.557Z,25.30
2022-09-12T10:53:20.477Z,25.10
2022-09-12T10:56:05.435Z,24.80
2022-09-12T10:58:48.245Z,24.50
2022-09-12T11:01:33.953Z,24.80
2022-09-12T11:04:21.639Z,25.10
2022-09-12T11:07:03.647Z,25.60
2022-09-12T11:09:40.029Z,26.10
2022-09-12T11:12:18.561Z,26.10
2022-09-12T11:15:01.659Z,25.60
2022-09-12T11:17:42.801Z,24.90
2022-09-12T11:20:26.144Z,24.50
2022-09-12T11:23:24.393Z,24.30
2022-09-12T11:26:00.186Z,24.50
2022-09-12T11:28:36.349Z,24.90
2022-09-12T11:31:21.463Z,25.10
2022-09-12T11:33:54.984Z,25.00
2022-09-12T11:36:34.472Z,25.30
2022-09-12T11:39:14.768Z,25.60
2022-09-12T11:41:50.253Z,25.80
2022-09-12T11:44:23.525Z,25.70
2022-09-12T11:46:52.346Z,26.10
2022-09-12T11:49:35.648Z,26.20
2022-09-12T11:52:08.848Z,26.60
2022-09-12T11:54:41.093Z,26.60
2022-09-12T11:57:16.926Z,26.30
2022-09-12T11:59:50.748Z,26.30
2022-09-12T12:02:27.899Z,26.50
2022-09-12T12:05:05.109Z,26.70
2022-09-12T12:07:45.388Z,26.40
2022-09-12T12:10:31.078Z,26.00
2022-09-12T12:13:04.531Z,25.70
2022-09-12T12:15:33.419Z,24.90
2022-09-12T12:18:08.196Z,24.70
2022-09-12T12:20:37.234Z,24.50
2022-09-12T12:23:05.871Z,24.90
2022-09-12T12:25:51.505Z,25.30
2022-09-12T12:28:52.765Z,25.40
2022-09-12T12:31:23.868Z,25.20
2022-09-12T12:34:27.644Z,24.80
2022-09-12T12:36:55.925Z,24.50
2022-09-12T12:40:01.109Z,24.30
2022-09-12T12:43:07.769Z,24.70
2022-09-12T12:46:10.750Z,25.20
2022-09-12T12:48:51.703Z,25.90
2022-09-12T12:51:39.112Z,26.40
2022-09-12T12:54:31.590Z,26.30
2022-09-12T12:57:16.896Z,26.20
2022-09-12T12:59:49.943Z,26.00
2022-09-12T13:02:23.883Z,26.10
2022-09-12T13:04:55.556Z,26.20
2022-09-12T13:07:31.237Z,25.80
2022-09-12T13:10:01.408Z,25.40
2022-09-12T13:12:33.288Z,25.40
2022-09-12T13:15:02.945Z,25.50
2022-09-12T13:17:35.672Z,25.50
2022-09-12T13:20:29.907Z,25.10
2022-09-12T13:22:59.367Z,24.80
2022-09-12T13:25:31.436Z,24.80
2022-09-12T13:28:02.044Z,24.90
2022-09-12T13:30:32.510Z,24.90
2022-09-12T13:33:11.367Z,25.00
2022-09-12T13:36:12.234Z,25.40
2022-09-12T13:38:51.400Z,25.80
2022-09-12T13:41:40.553Z,25.90
2022-09-12T13:44:13.377Z,26.10
2022-09-12T13:46:42.638Z,26.00
2022-09-12T13:49:19.545Z,25.90
2022-09-12T13:51:57.768Z,25.90
2022-09-12T13:54:27.356Z,25.70
2022-09-12T13:56:55.718Z,25.50
2022-09-12T13:59:24.509Z,25.80
2022-09-12T14:01:53.282Z,26.00
2022-09-12T14:04:40.467Z,26.20
2022-09-12T14:07:17.396Z,26.30
2022-09-12T14:09:47.314Z,26.30
2022-09-12T14:12:22.258Z,26.20
2022-09-12T14:14:53.269Z,25.90
2022-09-12T14:17:29.905Z,25.70
2022-09-12T14:19:59.570Z,25.50
2022-09-12T14:22:29.940Z,25.40
2022-09-12T14:25:00.208Z,25.20
2022-09-12T14:27:31.695Z,24.70
2022-09-12T14:30:09.171Z,24.50
2022-09-12T14:32:37.469Z,24.20
2022-09-12T14:35:19.873Z,24.10
2022-09-12T14:37:52.540Z,24.00
2022-09-12T14:40:22.681Z,24.00
2022-09-12T14:42:56.893Z,24.10
2022-09-12T14:45:32.220Z,24.10
2022-09-12T14:48:00.719Z,24.10
2022-09-12T14:50:31.735Z,24.20
2022-09-12T14:53:21.121Z,24.10
2022-09-12T14:55:54.235Z,24.10
2022-09-12T14:58:28.410Z,24.00
2022-09-12T15:00:59.606Z,23.90
2022-09-12T15:03:31.663Z,23.90
2022-09-12T15:06:00.757Z,23.90
2022-09-12T15:08:30.628Z,23.80
2022-09-12T15:10:59.835Z,23.80
2022-09-12T15:13:30.272Z,23.70
2022-09-12T15:16:00.079Z,23.60
2022-09-12T15:18:30.093Z,23.50
2022-09-12T15:21:03.473Z,23.40
2022-09-12T15:23:38.222Z,23.40
2022-09-12T15:26:07.056Z,23.30
2022-09-12T15:28:35.810Z,23.30
2022-09-12T15:31:08.517Z,23.20
2022-09-12T15:33:36.883Z,23.20
2022-09-12T15:36:13.249Z,23.10
2022-09-12T15:38:42.846Z,23.00
2022-09-12T15:41:14.438Z,22.90
2022-09-12T15:43:42.766Z,22.80
2022-09-12T15:46:13.196Z,22.70
2022-09-12T15:48:41.596Z,22.60
2022-09-12T15:51:15.468Z,22.50
2022-09-12T15:53:46.723Z,22.30
2022-09-12T15:56:15.957Z,22.30
2022-09-12T15:58:57.768Z,22.20
2022-09-12T16:01:27.093Z,22.10
2022-09-12T16:03:55.446Z,22.00
2022-09-12T16:06:23.743Z,21.90
2022-09-12T16:08:53.463Z,21.80
2022-09-12T16:11:24.617Z,21.70
2022-09-12T16:13:54.174Z,21.60
2022-09-12T16:16:22.778Z,21.60
2022-09-12T16:18:51.288Z,21.40
2022-09-12T16:21:19.524Z,21.30
2022-09-12T16:23:49.051Z,21.30
2022-09-12T16:26:19.159Z,21.20
2022-09-12T16:28:47.610Z,21.10
2022-09-12T16:31:16.081Z,21.10
2022-09-12T16:33:44.325Z,21.00
2022-09-12T16:36:15.533Z,20.90
2022-09-12T16:38:44.435Z,20.80
2022-09-12T16:41:13.235Z,20.80
2022-09-12T16:43:43.678Z,20.80
2022-09-12T16:46:16.038Z,20.70
2022-09-12T16:48:50.966Z,20.60
2022-09-12T16:51:21.741Z,20.50
2022-09-12T16:53:50.148Z,20.50
2022-09-12T16:56:18.454Z,20.50
2022-09-12T16:58:49.132Z,20.40
2022-09-12T17:01:20.346Z,20.30
2022-09-12T17:03:48.925Z,20.30
2022-09-12T17:06:18.783Z,20.20
2022-09-12T17:08:50.495Z,20.10
2022-09-12T17:11:20.434Z,20.10
2022-09-12T17:14:04.279Z,20.00
2022-09-12T17:16:33.669Z,19.90
2022-09-12T17:19:01.939Z,19.90
2022-09-12T17:21:30.234Z,19.80
2022-09-12T17:23:59.273Z,19.80
2022-09-12T17:26:28.253Z,19.70
2022-09-12T17:28:57.927Z,19.70
2022-09-12T17:31:26.756Z,19.60
2022-09-12T17:33:58.451Z,19.60
2022-09-12T17:36:27.608Z,19.60
2022-09-12T17:38:56.151Z,19.50
2022-09-12T17:41:26.595Z,19.50
2022-09-12T17:43:57.466Z,19.50
2022-09-12T17:46:31.920Z,19.50
2022-09-12T17:49:01.088Z,19.40
2022-09-12T17:51:31.720Z,19.40
2022-09-12T17:54:01.250Z,19.50
2022-09-12T17:56:30.892Z,19.50
2022-09-12T17:59:00.212Z,19.40
2022-09-12T18:01:48.665Z,19.30
2022-09-12T18:04:17.739Z,19.30
2022-09-12T18:06:48.717Z,19.30
2022-09-12T18:09:19.394Z,19.20
2022-09-12T18:11:48.307Z,19.10
2022-09-12T18:14:17.228Z,19.10
2022-09-12T18:16:47.863Z,19.10
2022-09-12T18:19:16.814Z,19.00
2022-09-12T18:21:45.541Z,19.00
2022-09-12T18:24:13.954Z,18.90
2022-09-12T18:26:43.643Z,18.90
2022-09-12T18:29:12.601Z,18.90
2022-09-12T18:31:41.024Z,18.80
2022-09-12T18:34:14.031Z,18.80
2022-09-12T18:36:42.729Z,18.70
2022-09-12T18:39:11.694Z,18.70
2022-09-12T18:41:40.363Z,18.60
2022-09-12T18:44:09.182Z,18.60
2022-09-12T18:46:37.518Z,18.60
2022-09-12T18:49:07.691Z,18.50
2022-09-12T18:51:41.813Z,18.50
2022-09-12T18:54:14.369Z,18.50
2022-09-12T18:56:44.081Z,18.40
2022-09-12T18:59:14.901Z,18.40
2022-09-12T19:01:44.408Z,18.40
2022-09-12T19:04:14.331Z,18.40
2022-09-12T19:06:46.109Z,18.40
2022-09-12T19:09:16.169Z,18.30
2022-09-12T19:11:49.723Z,18.30
2022-09-12T19:14:19.214Z,18.30
2022-09-12T19:16:47.751Z,18.20
2022-09-12T19:19:16.195Z,18.20
2022-09-12T19:21:47.761Z,18.10
2022-09-12T19:24:17.149Z,18.10
2022-09-12T19:26:46.059Z,18.00
2022-09-12T19:29:14.841Z,18.00
2022-09-12T19:31:43.121Z,18.00
2022-09-12T19:34:12.209Z,18.00
2022-09-12T19:36:45.952Z,17.90
2022-09-12T19:39:17.592Z,17.90
2022-09-12T19:41:46.211Z,17.90
2022-09-12T19:44:14.632Z,17.80
2022-09-12T19:46:42.937Z,17.80
2022-09-12T19:49:13.150Z,17.70
2022-09-12T19:51:41.819Z,17.70
2022-09-12T19:54:10.219Z,17.60
2022-09-12T19:56:39.835Z,17.50
2022-09-12T19:59:08.741Z,17.50
2022-09-12T20:01:37.748Z,17.50
2022-09-12T20:04:06.943Z,17.40
2022-09-12T20:06:35.980Z,17.40
2022-09-12T20:09:04.633Z,17.30
2022-09-12T20:11:32.796Z,17.20
2022-09-12T20:14:02.664Z,17.20
2022-09-12T20:16:31.289Z,17.10
2022-09-12T20:19:01.343Z,17.10
2022-09-12T20:21:34.263Z,17.10
2022-09-12T20:24:04.102Z,17.00
2022-09-12T20:26:32.855Z,17.00
2022-09-12T20:29:02.539Z,17.00
2022-09-12T20:31:31.244Z,17.00
2022-09-12T20:33:59.535Z,17.00
2022-09-12T20:36:28.331Z,16.90
2022-09-12T20:38:58.145Z,16.90
2022-09-12T20:41:27.724Z,16.90
2022-09-12T20:43:58.023Z,16.90
2022-09-12T20:46:29.074Z,16.80
2022-09-12T20:48:58.620Z,16.80
2022-09-12T20:51:29.771Z,16.70
2022-09-12T20:53:58.768Z,16.70
2022-09-12T20:56:27.786Z,16.70
2022-09-12T20:58:57.004Z,16.70
2022-09-12T21:01:26.374Z,16.60
2022-09-12T21:03:56.301Z,16.50
2022-09-12T21:06:24.540Z,16.60
2022-09-12T21:08:53.994Z,16.50
2022-09-12T21:11:22.267Z,16.50
2022-09-12T21:13:50.622Z,16.50
2022-09-12T21:16:20.358Z,16.40
2022-09-12T21:18:49.155Z,16.40
2022-09-12T21:21:18.840Z,16.30
2022-09-12T21:23:47.123Z,16.30
2022-09-12T21:26:15.405Z,16.20
2022-09-12T21:28:43.647Z,16.20
2022-09-12T21:31:12.086Z,16.10
2022-09-12T21:33:40.530Z,16.10
2022-09-12T21:36:09.718Z,16.00
2022-09-12T21:38:39.683Z,15.90
2022-09-12T21:41:09.480Z,15.90
2022-09-12T21:43:38.626Z,15.90
2022-09-12T21:46:08.480Z,15.90
2022-09-12T21:48:37.441Z,15.90
2022-09-12T21:51:06.031Z,15.90
2022-09-12T21:53:34.228Z,15.90
2022-09-12T21:56:05.476Z,15.80
2022-09-12T21:58:33.736Z,15.80
2022-09-12T22:01:02.175Z,15.80
2022-09-12T22:03:30.810Z,15.70
2022-09-12T22:06:00.002Z,15.70
2022-09-12T22:08:29.348Z,15.70
2022-09-12T22:11:00.800Z,15.60
2022-09-12T22:13:31.449Z,15.60
2022-09-12T22:16:00.672Z,15.70
2022-09-12T22:18:29.112Z,15.70
2022-09-12T22:21:02.184Z,15.70
2022-09-12T22:23:47.452Z,15.60
2022-09-12T22:26:15.778Z,15.70
2022-09-12T22:28:47.313Z,15.70
2022-09-12T22:31:16.846Z,15.70
2022-09-12T22:33:45.917Z,15.70
2022-09-12T22:36:14.526Z,15.70
2022-09-12T22:38:42.717Z,15.70
2022-09-12T22:41:13.304Z,15.70
2022-09-12T22:43:42.024Z,15.80
2022-09-12T22:46:13.584Z,15.80
2022-09-12T22:48:42.888Z,15.80
2022-09-12T22:51:11.400Z,15.80
2022-09-12T22:53:39.703Z,15.90
2022-09-12T22:56:09.185Z,15.90
2022-09-12T22:58:38.388Z,15.90
2022-09-12T23:01:07.625Z,15.90
2022-09-12T23:03:38.303Z,15.90
2022-09-12T23:06:07.151Z,15.90
2022-09-12T23:08:36.605Z,15.90
2022-09-12T23:11:06.424Z,15.90
2022-09-12T23:13:34.702Z,15.90
2022-09-12T23:16:04.947Z,15.90
2022-09-12T23:18:37.327Z,15.90
2022-09-12T23:21:07.450Z,15.90
2022-09-12T23:23:36.539Z,15.90
2022-09-12T23:26:06.685Z,15.90
2022-09-12T23:28:35.114Z,15.90
2022-09-12T23:31:04.023Z,15.90
2022-09-12T23:33:33.457Z,15.90
2022-09-12T23:36:05.305Z,15.80
2022-09-12T23:38:35.030Z,15.80
2022-09-12T23:41:03.884Z,15.80
2022-09-12T23:43:32.572Z,15.80
2022-09-12T23:46:01.122Z,15.80
2022-09-12T23:48:29.634Z,15.70
2022-09-12T23:50:58.333Z,15.70
2022-09-12T23:53:28.298Z,15.70
2022-09-12T23:55:56.608Z,15.70
2022-09-12T23:58:25.153Z,15.70
